Aérodrome :
LOGIN :

S'inscrire | Disclaimer

   EN    FR    IT 

 










Légende :    VFR   VFR Marginal   IFR   IFR Intensif   IFR Très Intensif
Visi : 
Plafond : 
>= 8 km
>= 3000ft
5 à 8 km
1000 à 3000 ft
1500m à 5 km
500 à 1000 ft
800 à 1500m
200 à 500 ft
< 800m
< 200 ft
Symboles :   Orages  Brouillard  Fortes neiges  Fortes précipitations  Vent > 20 kt
SIGMETs :   Divers  Orages  Givrage  Turbulence  Onde Orograph.  Cendres Volcan.







- Altitude de l'aérodrome : 527 ft
- Code IATA : DBV


LDDU - Dubrovnik

DERNIER METAR :
  • 231930Z VRB09G20KT CAVOK 08/M04 Q1025 NOSIG

METARs EXPIRÉS :
  • 231900Z VRB07G18KT CAVOK 08/M04 Q1025 NOSIG
  • 231830Z 02009G21KT 320V110 CAVOK 08/M04 Q1025 NOSIG
  • 231800Z 02009KT 320V080 CAVOK 09/M04 Q1024 NOSIG
  • 231730Z 36012G22KT 310V070 CAVOK 09/M04 Q1024 NOSIG
  • 231700Z 35006KT 290V070 CAVOK 08/M04 Q1023 TEMPO 02020G35KT

TAF TAF LDDU
Valide du 23 à 18h jusqu'au 24 à 18h UTC


231725Z 2318/2418 35012KT CAVOK TX10/2413Z TN03/2406Z
PROB30
TEMPO 2318/2322 02020G35KT
BECMG 2323/2401 02015KT
BECMG 2408/2410 VRB02KT
Pas de NOTAMs connus pour ce terrain.



MET'MAP, la Météo Aéronautique d'un coup d'oeil ! - Copyright ORBIFLY Décembre 2007 - Disclaimer

ORBIFLY MET'MAP TEAM :

Programmation & Développement : Alexandra Zaïnal
Conception & Développement : Baudouin d'Aumeries
Co-Programmation & Développement : Marc-Olivier Méhu
Soutien technique & logistique : Manuel Goepfert

Contact : metmap@orbifly.com




SOURCES & CREDITS :

   NOAA